sensor_id;sensor_type;location;lat;lon;timestamp;pressure;altitude;pressure_sealevel;temperature;humidity
22572;BME280;11452;53.368;14.658;2022-10-16T00:03:57;100529.50;;;17.06;83.08
22572;BME280;11452;53.368;14.658;2022-10-16T00:09:04;100527.13;;;17.07;83.04
22572;BME280;11452;53.368;14.658;2022-10-16T00:14:12;100537.73;;;17.05;82.96
22572;BME280;11452;53.368;14.658;2022-10-16T00:19:18;100534.05;;;17.06;83.17
22572;BME280;11452;53.368;14.658;2022-10-16T00:24:23;100530.98;;;17.05;82.91
22572;BME280;11452;53.368;14.658;2022-10-16T00:29:29;100532.70;;;17.06;82.93
22572;BME280;11452;53.368;14.658;2022-10-16T00:34:35;100539.70;;;17.03;82.93
22572;BME280;11452;53.368;14.658;2022-10-16T00:39:41;100531.73;;;17.01;82.83
22572;BME280;11452;53.368;14.658;2022-10-16T00:44:55;100543.39;;;17.02;82.91
22572;BME280;11452;53.368;14.658;2022-10-16T00:55:26;100561.67;;;17.04;83.13
22572;BME280;11452;53.368;14.658;2022-10-16T01:00:34;100568.06;;;17.03;83.11
22572;BME280;11452;53.368;14.658;2022-10-16T01:05:45;100554.43;;;17.04;83.12
22572;BME280;11452;53.368;14.658;2022-10-16T01:16:07;100570.89;;;17.01;82.94
22572;BME280;11452;53.368;14.658;2022-10-16T01:21:31;100578.38;;;17.03;83.21
22572;BME280;11452;53.368;14.658;2022-10-16T01:32:05;100573.95;;;17.02;83.01
22572;BME280;11452;53.368;14.658;2022-10-16T01:37:14;100578.99;;;17.01;83.09
22572;BME280;11452;53.368;14.658;2022-10-16T01:42:22;100593.59;;;17.04;83.09
22572;BME280;11452;53.368;14.658;2022-10-16T01:47:30;100599.36;;;17.05;83.13
22572;BME280;11452;53.368;14.658;2022-10-16T01:52:39;100609.92;;;17.03;83.12
22572;BME280;11452;53.368;14.658;2022-10-16T01:57:47;100605.88;;;17.03;83.02
22572;BME280;11452;53.368;14.658;2022-10-16T02:02:54;100604.39;;;17.04;83.21
22572;BME280;11452;53.368;14.658;2022-10-16T02:08:00;100600.58;;;17.07;83.23
22572;BME280;11452;53.368;14.658;2022-10-16T02:13:10;100597.88;;;17.07;83.23
22572;BME280;11452;53.368;14.658;2022-10-16T02:18:16;100593.83;;;17.07;83.02
22572;BME280;11452;53.368;14.658;2022-10-16T02:23:32;100598.00;;;17.05;83.07
22572;BME280;11452;53.368;14.658;2022-10-16T02:28:40;100603.53;;;17.04;82.95
22572;BME280;11452;53.368;14.658;2022-10-16T02:33:46;100595.20;;;17.01;83.06
22572;BME280;11452;53.368;14.658;2022-10-16T02:38:53;100598.39;;;17.01;83.07
22572;BME280;11452;53.368;14.658;2022-10-16T02:43:59;100595.45;;;16.98;83.10
22572;BME280;11452;53.368;14.658;2022-10-16T02:49:04;100619.27;;;16.99;83.18
22572;BME280;11452;53.368;14.658;2022-10-16T02:54:10;100623.67;;;17.00;83.22
22572;BME280;11452;53.368;14.658;2022-10-16T02:59:16;100615.94;;;17.01;83.36
22572;BME280;11452;53.368;14.658;2022-10-16T03:04:21;100627.73;;;17.00;83.12
22572;BME280;11452;53.368;14.658;2022-10-16T03:09:27;100631.78;;;17.00;83.32
22572;BME280;11452;53.368;14.658;2022-10-16T03:14:33;100638.89;;;17.01;83.30
22572;BME280;11452;53.368;14.658;2022-10-16T03:19:39;100644.78;;;17.00;83.32
22572;BME280;11452;53.368;14.658;2022-10-16T03:24:44;100642.84;;;16.96;83.17
22572;BME280;11452;53.368;14.658;2022-10-16T03:29:50;100637.44;;;16.96;83.30
22572;BME280;11452;53.368;14.658;2022-10-16T03:34:55;100636.34;;;16.93;83.20
22572;BME280;11452;53.368;14.658;2022-10-16T03:40:02;100643.58;;;16.93;83.35
22572;BME280;11452;53.368;14.658;2022-10-16T03:45:08;100659.66;;;16.89;83.27
22572;BME280;11452;53.368;14.658;2022-10-16T03:50:13;100666.33;;;16.85;83.49
22572;BME280;11452;53.368;14.658;2022-10-16T03:55:19;100667.92;;;16.87;83.66
22572;BME280;11452;53.368;14.658;2022-10-16T04:00:25;100678.61;;;16.83;83.65
22572;BME280;11452;53.368;14.658;2022-10-16T04:05:30;100682.66;;;16.83;83.80
22572;BME280;11452;53.368;14.658;2022-10-16T04:10:36;100670.98;;;16.88;83.89
22572;BME280;11452;53.368;14.658;2022-10-16T04:15:42;100683.97;;;16.89;83.77
22572;BME280;11452;53.368;14.658;2022-10-16T04:20:47;100682.41;;;16.86;83.77
22572;BME280;11452;53.368;14.658;2022-10-16T04:25:53;100689.89;;;16.88;83.93
22572;BME280;11452;53.368;14.658;2022-10-16T04:30:59;100682.28;;;16.88;83.74
22572;BME280;11452;53.368;14.658;2022-10-16T04:36:05;100698.36;;;16.84;83.60
22572;BME280;11452;53.368;14.658;2022-10-16T04:41:10;100705.61;;;16.78;83.41
22572;BME280;11452;53.368;14.658;2022-10-16T04:46:16;100695.67;;;16.73;83.61
22572;BME280;11452;53.368;14.658;2022-10-16T04:51:21;100694.33;;;16.73;83.89
22572;BME280;11452;53.368;14.658;2022-10-16T04:56:27;100698.99;;;16.71;83.84
22572;BME280;11452;53.368;14.658;2022-10-16T05:01:32;100709.20;;;16.67;84.09
22572;BME280;11452;53.368;14.658;2022-10-16T05:06:38;100716.20;;;16.64;84.28
22572;BME280;11452;53.368;14.658;2022-10-16T05:11:44;100714.85;;;16.64;84.47
22572;BME280;11452;53.368;14.658;2022-10-16T05:16:49;100731.91;;;16.65;84.42
22572;BME280;11452;53.368;14.658;2022-10-16T05:21:56;100744.27;;;16.61;84.32
22572;BME280;11452;53.368;14.658;2022-10-16T05:27:01;100736.17;;;16.61;84.46
22572;BME280;11452;53.368;14.658;2022-10-16T05:32:07;100730.03;;;16.59;84.35
22572;BME280;11452;53.368;14.658;2022-10-16T05:37:13;100741.19;;;16.55;84.40
22572;BME280;11452;53.368;14.658;2022-10-16T05:42:19;100753.24;;;16.51;84.35
22572;BME280;11452;53.368;14.658;2022-10-16T05:47:24;100759.25;;;16.49;84.52
22572;BME280;11452;53.368;14.658;2022-10-16T05:52:30;100758.87;;;16.48;84.71
22572;BME280;11452;53.368;14.658;2022-10-16T05:57:36;100768.56;;;16.45;84.67
22572;BME280;11452;53.368;14.658;2022-10-16T06:02:42;100783.52;;;16.43;84.87
22572;BME280;11452;53.368;14.658;2022-10-16T06:07:47;100791.01;;;16.45;85.16
22572;BME280;11452;53.368;14.658;2022-10-16T06:12:53;100804.99;;;16.45;84.89
22572;BME280;11452;53.368;14.658;2022-10-16T06:17:58;100822.16;;;16.44;84.94
22572;BME280;11452;53.368;14.658;2022-10-16T06:23:04;100830.73;;;16.43;84.92
22572;BME280;11452;53.368;14.658;2022-10-16T06:28:09;100820.44;;;16.43;85.00
22572;BME280;11452;53.368;14.658;2022-10-16T06:33:15;100830.99;;;16.46;84.80
22572;BME280;11452;53.368;14.658;2022-10-16T06:38:20;100837.86;;;16.44;84.94
22572;BME280;11452;53.368;14.658;2022-10-16T06:43:28;100823.50;;;16.55;85.20
22572;BME280;11452;53.368;14.658;2022-10-16T06:48:36;100833.56;;;16.58;85.03
22572;BME280;11452;53.368;14.658;2022-10-16T06:53:44;100842.56;;;16.65;84.80
22572;BME280;11452;53.368;14.658;2022-10-16T06:58:53;100846.73;;;16.69;84.92
22572;BME280;11452;53.368;14.658;2022-10-16T07:04:00;100845.87;;;16.79;84.76
22572;BME280;11452;53.368;14.658;2022-10-16T07:09:09;100837.75;;;16.90;84.89
22572;BME280;11452;53.368;14.658;2022-10-16T07:14:17;100846.70;;;16.96;84.40
22572;BME280;11452;53.368;14.658;2022-10-16T07:19:23;100868.20;;;17.04;84.27
22572;BME280;11452;53.368;14.658;2022-10-16T07:24:31;100852.94;;;17.08;84.11
22572;BME280;11452;53.368;14.658;2022-10-16T07:29:36;100879.71;;;17.17;83.85
22572;BME280;11452;53.368;14.658;2022-10-16T07:34:43;100864.81;;;17.28;84.20
22572;BME280;11452;53.368;14.658;2022-10-16T07:39:50;100901.17;;;17.41;83.64
22572;BME280;11452;53.368;14.658;2022-10-16T07:44:56;100902.11;;;17.56;83.51
22572;BME280;11452;53.368;14.658;2022-10-16T07:50:02;100900.59;;;17.63;82.76
22572;BME280;11452;53.368;14.658;2022-10-16T07:55:08;100898.89;;;17.74;82.37
22572;BME280;11452;53.368;14.658;2022-10-16T08:00:15;100913.70;;;17.85;81.62
22572;BME280;11452;53.368;14.658;2022-10-16T08:05:21;100919.70;;;17.99;81.41
22572;BME280;11452;53.368;14.658;2022-10-16T08:10:28;100921.72;;;18.13;80.65
22572;BME280;11452;53.368;14.658;2022-10-16T08:15:34;100934.09;;;18.21;79.70
22572;BME280;11452;53.368;14.658;2022-10-16T08:20:40;100938.51;;;18.22;78.85
22572;BME280;11452;53.368;14.658;2022-10-16T08:25:46;100937.39;;;18.24;78.06
22572;BME280;11452;53.368;14.658;2022-10-16T08:30:52;100938.42;;;18.39;77.94
22572;BME280;11452;53.368;14.658;2022-10-16T08:35:57;100922.27;;;18.48;77.45
22572;BME280;11452;53.368;14.658;2022-10-16T08:41:25;100930.80;;;18.64;76.93
22572;BME280;11452;53.368;14.658;2022-10-16T08:47:17;100929.31;;;18.66;75.25
22572;BME280;11452;53.368;14.658;2022-10-16T08:51:42;100934.83;;;18.70;75.19
22572;BME280;11452;53.368;14.658;2022-10-16T08:56:47;100930.58;;;18.77;74.38
22572;BME280;11452;53.368;14.658;2022-10-16T09:01:55;100936.82;;;18.83;74.26
22572;BME280;11452;53.368;14.658;2022-10-16T09:07:09;100935.23;;;18.96;74.07
22572;BME280;11452;53.368;14.658;2022-10-16T09:17:47;100945.57;;;19.12;72.99
22572;BME280;11452;53.368;14.658;2022-10-16T09:22:53;100948.64;;;19.13;72.41
22572;BME280;11452;53.368;14.658;2022-10-16T09:27:58;100962.39;;;19.21;72.01
22572;BME280;11452;53.368;14.658;2022-10-16T09:33:04;100956.83;;;19.22;71.42
22572;BME280;11452;53.368;14.658;2022-10-16T09:38:31;100961.98;;;19.25;71.06
22572;BME280;11452;53.368;14.658;2022-10-16T09:43:41;100971.49;;;19.35;70.90
22572;BME280;11452;53.368;14.658;2022-10-16T09:48:50;100964.35;;;19.34;70.42
22572;BME280;11452;53.368;14.658;2022-10-16T09:54:13;100964.17;;;19.41;70.11
22572;BME280;11452;53.368;14.658;2022-10-16T09:59:10;100963.27;;;19.46;70.08
22572;BME280;11452;53.368;14.658;2022-10-16T10:04:15;100977.96;;;19.59;69.73
22572;BME280;11452;53.368;14.658;2022-10-16T10:09:32;100977.12;;;19.68;69.27
22572;BME280;11452;53.368;14.658;2022-10-16T10:14:53;100977.11;;;19.83;69.20
22572;BME280;11452;53.368;14.658;2022-10-16T10:19:58;100991.72;;;19.86;68.45
22572;BME280;11452;53.368;14.658;2022-10-16T10:30:29;100990.03;;;20.04;67.96
22572;BME280;11452;53.368;14.658;2022-10-16T10:35:54;101004.19;;;20.08;67.24
22572;BME280;11452;53.368;14.658;2022-10-16T10:52:07;100997.41;;;20.27;65.84
22572;BME280;11452;53.368;14.658;2022-10-16T10:57:29;100994.36;;;20.36;64.98
22572;BME280;11452;53.368;14.658;2022-10-16T11:02:47;101012.57;;;20.30;64.90
22572;BME280;11452;53.368;14.658;2022-10-16T11:07:54;101003.97;;;20.40;64.50
22572;BME280;11452;53.368;14.658;2022-10-16T11:13:06;100999.55;;;20.39;64.07
22572;BME280;11452;53.368;14.658;2022-10-16T11:18:20;101012.38;;;20.47;63.57
22572;BME280;11452;53.368;14.658;2022-10-16T11:23:28;101006.83;;;20.38;63.51
22572;BME280;11452;53.368;14.658;2022-10-16T11:28:37;101017.33;;;20.37;63.09
22572;BME280;11452;53.368;14.658;2022-10-16T11:33:49;101018.47;;;20.54;63.72
22572;BME280;11452;53.368;14.658;2022-10-16T11:44:38;101024.86;;;20.82;63.03
22572;BME280;11452;53.368;14.658;2022-10-16T11:49:42;101021.89;;;20.76;62.52
22572;BME280;11452;53.368;14.658;2022-10-16T11:55:28;101028.09;;;20.62;62.21
22572;BME280;11452;53.368;14.658;2022-10-16T12:00:31;101024.47;;;20.48;62.88
22572;BME280;11452;53.368;14.658;2022-10-16T12:16:50;101023.40;;;20.97;64.42
22572;BME280;11452;53.368;14.658;2022-10-16T12:21:46;101018.95;;;21.06;64.34
22572;BME280;11452;53.368;14.658;2022-10-16T12:26:52;101026.42;;;21.18;64.80
22572;BME280;11452;53.368;14.658;2022-10-16T12:31:59;101026.16;;;21.30;65.04
22572;BME280;11452;53.368;14.658;2022-10-16T12:37:25;101029.69;;;21.40;64.55
22572;BME280;11452;53.368;14.658;2022-10-16T12:42:34;101030.12;;;21.36;64.03
22572;BME280;11452;53.368;14.658;2022-10-16T12:47:48;101033.84;;;21.35;64.36
22572;BME280;11452;53.368;14.658;2022-10-16T12:52:54;101039.91;;;21.42;64.24
22572;BME280;11452;53.368;14.658;2022-10-16T13:30:18;101081.86;;;21.91;60.85
22572;BME280;11452;53.368;14.658;2022-10-16T13:35:29;101103.47;;;21.88;60.39
22572;BME280;11452;53.368;14.658;2022-10-16T13:40:35;101092.39;;;21.76;59.70
22572;BME280;11452;53.368;14.658;2022-10-16T13:45:41;101098.04;;;21.65;58.61
22572;BME280;11452;53.368;14.658;2022-10-16T13:50:46;101103.84;;;21.66;58.89
22572;BME280;11452;53.368;14.658;2022-10-16T13:55:53;101100.70;;;21.74;58.97
22572;BME280;11452;53.368;14.658;2022-10-16T14:01:01;101098.37;;;21.89;58.26
22572;BME280;11452;53.368;14.658;2022-10-16T14:06:15;101116.36;;;22.72;54.95
22572;BME280;11452;53.368;14.658;2022-10-16T14:11:23;101110.80;;;21.92;56.60
22572;BME280;11452;53.368;14.658;2022-10-16T14:16:31;101120.47;;;21.76;56.38
22572;BME280;11452;53.368;14.658;2022-10-16T14:21:37;101131.19;;;21.64;56.57
22572;BME280;11452;53.368;14.658;2022-10-16T14:26:45;101140.72;;;21.64;56.34
22572;BME280;11452;53.368;14.658;2022-10-16T14:37:25;101139.34;;;21.41;55.95
22572;BME280;11452;53.368;14.658;2022-10-16T14:42:31;101143.77;;;21.42;55.97
22572;BME280;11452;53.368;14.658;2022-10-16T14:47:44;101151.80;;;21.34;56.00
22572;BME280;11452;53.368;14.658;2022-10-16T14:52:45;101151.89;;;21.28;56.03
22572;BME280;11452;53.368;14.658;2022-10-16T14:57:50;101164.23;;;21.17;55.90
22572;BME280;11452;53.368;14.658;2022-10-16T15:02:58;101165.41;;;21.15;55.73
22572;BME280;11452;53.368;14.658;2022-10-16T15:08:03;101171.69;;;21.05;56.17
22572;BME280;11452;53.368;14.658;2022-10-16T15:13:13;101176.13;;;21.06;56.13
22572;BME280;11452;53.368;14.658;2022-10-16T15:18:19;101183.13;;;20.99;56.27
22572;BME280;11452;53.368;14.658;2022-10-16T15:23:26;101192.59;;;20.95;56.35
22572;BME280;11452;53.368;14.658;2022-10-16T15:28:31;101199.27;;;20.82;56.58
22572;BME280;11452;53.368;14.658;2022-10-16T15:33:38;101198.00;;;20.76;56.72
22572;BME280;11452;53.368;14.658;2022-10-16T15:38:44;101197.11;;;20.66;56.69
22572;BME280;11452;53.368;14.658;2022-10-16T15:43:50;101201.73;;;20.50;56.81
22572;BME280;11452;53.368;14.658;2022-10-16T15:48:58;101208.50;;;20.41;57.23
22572;BME280;11452;53.368;14.658;2022-10-16T15:54:03;101211.86;;;20.33;57.51
22572;BME280;11452;53.368;14.658;2022-10-16T15:59:09;101221.75;;;20.19;57.34
22572;BME280;11452;53.368;14.658;2022-10-16T16:04:15;101234.30;;;20.04;58.07
22572;BME280;11452;53.368;14.658;2022-10-16T16:09:22;101244.72;;;19.99;58.28
22572;BME280;11452;53.368;14.658;2022-10-16T16:14:28;101249.22;;;19.89;58.55
22572;BME280;11452;53.368;14.658;2022-10-16T16:19:34;101260.80;;;19.70;58.31
22572;BME280;11452;53.368;14.658;2022-10-16T16:24:40;101257.95;;;19.51;58.47
22572;BME280;11452;53.368;14.658;2022-10-16T16:29:46;101260.84;;;19.33;58.70
22572;BME280;11452;53.368;14.658;2022-10-16T16:34:52;101271.25;;;19.17;58.84
22572;BME280;11452;53.368;14.658;2022-10-16T16:39:57;101291.88;;;19.02;59.04
22572;BME280;11452;53.368;14.658;2022-10-16T16:45:03;101294.87;;;18.88;59.31
22572;BME280;11452;53.368;14.658;2022-10-16T16:50:09;101304.23;;;18.79;59.55
22572;BME280;11452;53.368;14.658;2022-10-16T16:55:14;101310.91;;;18.69;59.69
22572;BME280;11452;53.368;14.658;2022-10-16T17:00:20;101317.63;;;18.58;59.89
22572;BME280;11452;53.368;14.658;2022-10-16T17:05:26;101326.99;;;18.48;60.17
22572;BME280;11452;53.368;14.658;2022-10-16T17:10:32;101334.97;;;18.39;60.40
22572;BME280;11452;53.368;14.658;2022-10-16T17:15:37;101349.62;;;18.30;60.61
22572;BME280;11452;53.368;14.658;2022-10-16T17:20:43;101351.95;;;18.18;60.89
22572;BME280;11452;53.368;14.658;2022-10-16T17:25:49;101355.10;;;18.07;61.03
22572;BME280;11452;53.368;14.658;2022-10-16T17:30:54;101365.53;;;17.94;61.36
22572;BME280;11452;53.368;14.658;2022-10-16T17:36:00;101373.84;;;17.86;61.69
22572;BME280;11452;53.368;14.658;2022-10-16T17:41:19;101386.88;;;17.81;61.92
22572;BME280;11452;53.368;14.658;2022-10-16T17:46:25;101396.54;;;17.72;61.96
22572;BME280;11452;53.368;14.658;2022-10-16T17:51:31;101408.86;;;17.63;62.07
22572;BME280;11452;53.368;14.658;2022-10-16T17:56:37;101426.05;;;17.57;62.27
22572;BME280;11452;53.368;14.658;2022-10-16T18:01:44;101424.28;;;17.50;62.43
22572;BME280;11452;53.368;14.658;2022-10-16T18:06:50;101433.95;;;17.42;62.66
22572;BME280;11452;53.368;14.658;2022-10-16T18:11:56;101433.64;;;17.34;62.90
22572;BME280;11452;53.368;14.658;2022-10-16T18:17:06;101438.24;;;17.26;63.01
22572;BME280;11452;53.368;14.658;2022-10-16T18:22:11;101441.90;;;17.19;63.39
22572;BME280;11452;53.368;14.658;2022-10-16T18:27:17;101439.36;;;17.11;63.52
22572;BME280;11452;53.368;14.658;2022-10-16T18:32:23;101448.41;;;17.04;63.72
22572;BME280;11452;53.368;14.658;2022-10-16T18:37:29;101447.01;;;16.99;64.28
22572;BME280;11452;53.368;14.658;2022-10-16T18:42:34;101455.54;;;16.92;64.51
22572;BME280;11452;53.368;14.658;2022-10-16T18:47:39;101460.45;;;16.93;64.85
22572;BME280;11452;53.368;14.658;2022-10-16T18:52:48;101466.20;;;16.88;64.98
22572;BME280;11452;53.368;14.658;2022-10-16T18:57:54;101469.39;;;16.88;65.30
22572;BME280;11452;53.368;14.658;2022-10-16T19:03:00;101486.39;;;16.83;65.31
22572;BME280;11452;53.368;14.658;2022-10-16T19:08:07;101490.66;;;16.80;65.62
22572;BME280;11452;53.368;14.658;2022-10-16T19:13:13;101503.50;;;16.76;65.72
22572;BME280;11452;53.368;14.658;2022-10-16T19:18:18;101503.81;;;16.72;65.96
22572;BME280;11452;53.368;14.658;2022-10-16T19:23:26;101501.98;;;16.72;66.26
22572;BME280;11452;53.368;14.658;2022-10-16T19:28:31;101518.91;;;16.69;66.43
22572;BME280;11452;53.368;14.658;2022-10-16T19:33:38;101523.92;;;16.68;66.59
22572;BME280;11452;53.368;14.658;2022-10-16T19:38:45;101538.87;;;16.66;66.71
22572;BME280;11452;53.368;14.658;2022-10-16T19:43:51;101539.95;;;16.64;66.82
22572;BME280;11452;53.368;14.658;2022-10-16T19:49:00;101551.30;;;16.61;66.92
22572;BME280;11452;53.368;14.658;2022-10-16T19:54:15;101546.97;;;16.59;67.10
22572;BME280;11452;53.368;14.658;2022-10-16T19:59:15;101553.44;;;16.56;67.14
22572;BME280;11452;53.368;14.658;2022-10-16T20:04:22;101553.26;;;16.52;67.42
22572;BME280;11452;53.368;14.658;2022-10-16T20:09:28;101562.33;;;16.51;67.50
22572;BME280;11452;53.368;14.658;2022-10-16T20:14:34;101573.12;;;16.51;67.58
22572;BME280;11452;53.368;14.658;2022-10-16T20:19:39;101584.63;;;16.48;67.67
22572;BME280;11452;53.368;14.658;2022-10-16T20:24:45;101592.93;;;16.45;67.78
22572;BME280;11452;53.368;14.658;2022-10-16T20:29:50;101596.21;;;16.43;67.83
22572;BME280;11452;53.368;14.658;2022-10-16T20:34:56;101594.09;;;16.41;67.96
22572;BME280;11452;53.368;14.658;2022-10-16T20:40:01;101611.35;;;16.38;67.92
22572;BME280;11452;53.368;14.658;2022-10-16T20:45:08;101621.48;;;16.35;67.97
22572;BME280;11452;53.368;14.658;2022-10-16T20:50:13;101620.74;;;16.33;68.22
22572;BME280;11452;53.368;14.658;2022-10-16T20:55:19;101624.27;;;16.33;68.35
22572;BME280;11452;53.368;14.658;2022-10-16T21:00:25;101625.14;;;16.34;68.38
22572;BME280;11452;53.368;14.658;2022-10-16T21:05:31;101613.00;;;16.34;68.60
22572;BME280;11452;53.368;14.658;2022-10-16T21:10:37;101627.35;;;16.34;68.76
22572;BME280;11452;53.368;14.658;2022-10-16T21:15:46;101632.88;;;16.33;68.98
22572;BME280;11452;53.368;14.658;2022-10-16T21:20:54;101637.47;;;16.38;69.12
22572;BME280;11452;53.368;14.658;2022-10-16T21:26:00;101637.27;;;16.41;69.24
22572;BME280;11452;53.368;14.658;2022-10-16T21:31:10;101635.14;;;16.46;69.23
22572;BME280;11452;53.368;14.658;2022-10-16T21:36:21;101656.25;;;17.13;67.40
22572;BME280;11452;53.368;14.658;2022-10-16T21:41:28;101650.05;;;16.66;68.57
22572;BME280;11452;53.368;14.658;2022-10-16T21:46:36;101648.09;;;16.60;69.07
22572;BME280;11452;53.368;14.658;2022-10-16T21:51:45;101657.64;;;16.59;69.02
22572;BME280;11452;53.368;14.658;2022-10-16T21:56:50;101669.65;;;16.48;69.10
22572;BME280;11452;53.368;14.658;2022-10-16T22:01:56;101684.40;;;16.42;69.31
22572;BME280;11452;53.368;14.658;2022-10-16T22:07:03;101661.94;;;16.42;69.71
22572;BME280;11452;53.368;14.658;2022-10-16T22:12:08;101668.11;;;16.37;69.39
22572;BME280;11452;53.368;14.658;2022-10-16T22:17:14;101675.83;;;16.36;69.97
22572;BME280;11452;53.368;14.658;2022-10-16T22:22:19;101675.25;;;16.38;69.99
22572;BME280;11452;53.368;14.658;2022-10-16T22:27:25;101684.31;;;16.37;70.14
22572;BME280;11452;53.368;14.658;2022-10-16T22:32:31;101689.26;;;16.30;70.12
22572;BME280;11452;53.368;14.658;2022-10-16T22:37:36;101681.84;;;16.26;70.51
22572;BME280;11452;53.368;14.658;2022-10-16T22:42:42;101675.97;;;16.20;70.47
22572;BME280;11452;53.368;14.658;2022-10-16T22:47:48;101672.11;;;16.17;70.81
22572;BME280;11452;53.368;14.658;2022-10-16T22:52:54;101674.52;;;16.14;70.89
22572;BME280;11452;53.368;14.658;2022-10-16T22:58:00;101695.16;;;16.08;70.87
22572;BME280;11452;53.368;14.658;2022-10-16T23:03:05;101698.44;;;16.06;71.23
22572;BME280;11452;53.368;14.658;2022-10-16T23:08:12;101696.98;;;16.01;71.26
22572;BME280;11452;53.368;14.658;2022-10-16T23:13:17;101708.85;;;15.91;71.53
22572;BME280;11452;53.368;14.658;2022-10-16T23:18:23;101709.70;;;15.84;71.77
22572;BME280;11452;53.368;14.658;2022-10-16T23:23:28;101705.30;;;15.76;72.01
22572;BME280;11452;53.368;14.658;2022-10-16T23:28:34;101695.75;;;15.71;71.98
22572;BME280;11452;53.368;14.658;2022-10-16T23:33:39;101707.95;;;15.62;72.18
22572;BME280;11452;53.368;14.658;2022-10-16T23:38:46;101712.16;;;15.52;72.39
22572;BME280;11452;53.368;14.658;2022-10-16T23:43:51;101714.92;;;15.43;72.75
22572;BME280;11452;53.368;14.658;2022-10-16T23:48:57;101722.44;;;15.38;72.82
22572;BME280;11452;53.368;14.658;2022-10-16T23:54:03;101743.09;;;15.31;73.02
22572;BME280;11452;53.368;14.658;2022-10-16T23:59:08;101729.33;;;15.28;73.57
